Time;durP1;ratioP1;P1;durP2;ratioP2;P2;SDS_P1;SDS_P2;PMS_P1;PMS_P2;Temp;Humidity;BMP_temperature;BMP_pressure;BME280_temperature;BME280_humidity;BME280_pressure;Samples;Min_cycle;Max_cycle;Signal;HPM_P1;HPM_P2
2021/11/15 00:02:10;;;;;;;47.77;21.77;;;;;;;5.58;100.00;99582.28;5040123;28;20080;-59
2021/11/15 00:04:36;;;;;;;48.47;23.00;;;;;;;5.52;100.00;99570.31;5040170;28;20028;-58
2021/11/15 00:07:02;;;;;;;50.40;24.27;;;;;;;5.55;100.00;99579.69;5042694;28;20485;-60
2021/11/15 00:09:28;;;;;;;47.63;22.07;;;;;;;5.56;100.00;99568.69;5044882;28;20025;-59
2021/11/15 00:11:54;;;;;;;47.37;23.03;;;;;;;5.57;100.00;99583.09;5041069;28;20471;-60
2021/11/15 00:14:20;;;;;;;45.20;22.33;;;;;;;5.60;100.00;99578.09;5037291;28;20029;-59
2021/11/15 00:16:46;;;;;;;44.97;22.47;;;;;;;5.58;100.00;99567.88;5043305;28;20029;-58
2021/11/15 00:19:11;;;;;;;42.00;20.67;;;;;;;5.57;100.00;99575.47;5042801;28;20392;-59
2021/11/15 00:21:37;;;;;;;44.40;21.20;;;;;;;5.57;100.00;99573.78;5040140;28;20450;-58
2021/11/15 00:24:03;;;;;;;43.63;20.27;;;;;;;5.56;100.00;99573.78;5040572;28;20033;-60
2021/11/15 00:26:28;;;;;;;41.33;22.50;;;;;;;5.50;100.00;99565.22;5042586;28;20033;-60
2021/11/15 00:28:54;;;;;;;42.27;21.07;;;;;;;5.53;100.00;99570.34;5045476;28;20043;-59
2021/11/15 00:31:21;;;;;;;41.40;19.90;;;;;;;5.56;100.00;99568.69;5042884;28;20116;-59
2021/11/15 00:33:47;;;;;;;36.90;19.60;;;;;;;5.52;100.00;99570.31;5041810;28;20025;-58
2021/11/15 00:36:12;;;;;;;39.27;20.07;;;;;;;5.46;100.00;99560.91;5041911;28;20360;-58
2021/11/15 00:38:38;;;;;;;48.93;21.80;;;;;;;5.47;100.00;99565.16;5040536;28;20250;-58
2021/11/15 00:41:03;;;;;;;42.43;20.73;;;;;;;5.45;100.00;99574.44;5041736;28;20055;-57
2021/11/15 00:43:29;;;;;;;40.53;19.57;;;;;;;5.52;100.00;99572.84;5040457;28;20407;-56
2021/11/15 00:45:54;;;;;;;43.93;18.93;;;;;;;5.55;100.00;99572.06;5042919;28;20036;-57
2021/11/15 00:48:20;;;;;;;38.50;19.17;;;;;;;5.57;100.00;99568.69;5038390;28;20053;-58
2021/11/15 00:50:46;;;;;;;44.67;21.43;;;;;;;5.57;100.00;99567.84;5040108;28;20032;-58
2021/11/15 00:53:12;;;;;;;46.83;22.37;;;;;;;5.58;100.00;99564.47;5044581;28;20472;-60
2021/11/15 00:55:37;;;;;;;45.73;21.00;;;;;;;5.46;100.00;99560.91;5042428;28;20498;-59
2021/11/15 00:58:05;;;;;;;48.47;21.00;;;;;;;5.44;100.00;99560.00;5044006;28;20065;-58
2021/11/15 01:00:31;;;;;;;42.93;21.20;;;;;;;5.46;100.00;99560.06;5038576;28;20049;-59
2021/11/15 01:02:59;;;;;;;43.37;19.93;;;;;;;5.51;100.00;99566.94;5039115;28;20033;-58
2021/11/15 01:05:25;;;;;;;40.43;20.83;;;;;;;5.46;100.00;99566.00;5043748;28;20541;-58
2021/11/15 01:07:51;;;;;;;41.90;18.30;;;;;;;5.41;100.00;99575.22;5039034;28;20112;-58
2021/11/15 01:10:19;;;;;;;42.63;20.87;;;;;;;5.41;100.00;99566.75;5033268;28;20033;-55
2021/11/15 01:12:46;;;;;;;41.63;20.73;;;;;;;5.35;100.00;99572.56;5038811;28;20047;-58
2021/11/15 01:15:15;;;;;;;39.17;20.03;;;;;;;5.32;100.00;99575.06;5043496;28;20044;-58
2021/11/15 01:17:41;;;;;;;41.80;21.03;;;;;;;5.37;100.00;99576.00;5038851;28;20451;-58
2021/11/15 01:20:09;;;;;;;47.23;21.27;;;;;;;5.36;100.00;99568.34;5032568;28;20065;-57
2021/11/15 01:22:35;;;;;;;42.50;19.17;;;;;;;5.42;100.00;99571.88;5038516;28;20033;-59
2021/11/15 01:25:00;;;;;;;42.03;19.77;;;;;;;5.38;100.00;99570.09;5038543;28;20052;-59
2021/11/15 01:27:26;;;;;;;43.50;22.10;;;;;;;5.33;100.00;99561.53;5034834;28;20796;-59
2021/11/15 01:29:52;;;;;;;41.80;20.20;;;;;;;5.31;100.00;99569.94;5036892;28;20080;-59
2021/11/15 01:32:17;;;;;;;42.70;20.30;;;;;;;5.35;100.00;99564.09;5037053;28;20018;-59
2021/11/15 01:34:43;;;;;;;36.93;18.20;;;;;;;5.37;100.00;99570.94;5039274;28;20781;-58
2021/11/15 01:37:08;;;;;;;45.07;20.37;;;;;;;5.29;100.00;99564.84;5036772;28;20040;-58
2021/11/15 01:39:34;;;;;;;48.27;21.47;;;;;;;5.25;100.00;99564.78;5036751;28;20032;-57
2021/11/15 01:42:00;;;;;;;48.17;20.97;;;;;;;5.21;100.00;99558.78;5042629;28;20036;-58
2021/11/15 01:44:26;;;;;;;42.10;20.47;;;;;;;5.26;100.00;99566.50;5039717;28;20135;-60
2021/11/15 01:46:51;;;;;;;46.13;21.93;;;;;;;5.21;100.00;99552.84;5035994;28;20107;-58
2021/11/15 01:49:17;;;;;;;49.73;22.00;;;;;;;5.23;100.00;99557.13;5035719;28;20036;-56
2021/11/15 01:51:43;;;;;;;47.87;21.50;;;;;;;5.28;100.00;99554.66;5042033;28;20041;-59
2021/11/15 01:54:09;;;;;;;43.20;21.57;;;;;;;5.27;100.00;99548.72;5037649;28;20037;-59
2021/11/15 01:56:34;;;;;;;48.90;22.30;;;;;;;5.29;100.00;99552.16;5036901;28;20085;-57
2021/11/15 01:59:04;;;;;;;42.93;20.00;;;;;;;5.31;100.00;99542.84;5038327;28;20033;-58
2021/11/15 02:01:30;;;;;;;51.17;20.70;;;;;;;5.32;100.00;99548.78;5041531;28;20051;-59
2021/11/15 02:03:57;;;;;;;46.00;20.83;;;;;;;5.32;100.00;99547.09;5036421;28;20472;-58
2021/11/15 02:06:23;;;;;;;44.80;20.03;;;;;;;5.35;100.00;99548.84;5035451;28;20439;-58
2021/11/15 02:08:48;;;;;;;48.53;22.37;;;;;;;5.35;100.00;99548.84;5037458;28;20017;-58
2021/11/15 02:11:14;;;;;;;45.33;20.57;;;;;;;5.33;100.00;99543.75;5042434;28;20671;-57
2021/11/15 02:13:40;;;;;;;41.90;19.30;;;;;;;5.31;100.00;99540.31;5035257;28;20041;-56
2021/11/15 02:16:06;;;;;;;52.13;22.10;;;;;;;5.34;100.00;99542.06;5036383;28;20481;-59
2021/11/15 02:18:32;;;;;;;43.80;19.67;;;;;;;5.37;100.00;99550.59;5034390;28;20037;-57
2021/11/15 02:21:01;;;;;;;43.37;20.97;;;;;;;5.42;100.00;99545.56;5035820;28;20032;-58
2021/11/15 02:23:31;;;;;;;48.20;21.13;;;;;;;5.45;100.00;99551.56;5034656;28;20037;-57
2021/11/15 02:25:58;;;;;;;46.83;22.00;;;;;;;5.42;100.00;99543.91;5035060;28;20095;-58
2021/11/15 02:28:30;;;;;;;43.00;20.27;;;;;;;5.42;100.00;99546.44;5035700;28;20034;-57
2021/11/15 02:30:55;;;;;;;46.40;19.90;;;;;;;5.39;100.00;99548.91;5038641;28;20037;-59
2021/11/15 02:33:21;;;;;;;51.77;22.57;;;;;;;5.40;100.00;99547.22;5038165;28;20067;-58
2021/11/15 02:35:47;;;;;;;41.33;20.87;;;;;;;5.39;100.00;99548.06;5034661;28;20060;-60
2021/11/15 02:38:13;;;;;;;42.80;19.80;;;;;;;5.44;100.00;99554.06;5033966;28;20035;-58
2021/11/15 02:40:39;;;;;;;41.60;18.70;;;;;;;5.41;100.00;99551.50;5035369;28;20490;-59
2021/11/15 02:43:05;;;;;;;47.17;19.63;;;;;;;5.42;100.00;99548.13;5036392;28;20123;-58
2021/11/15 02:45:31;;;;;;;50.63;19.10;;;;;;;5.45;100.00;99549.03;5036442;28;20033;-58
2021/11/15 02:47:57;;;;;;;49.17;21.37;;;;;;;5.40;100.00;99550.63;5037706;28;20404;-58
2021/11/15 02:50:26;;;;;;;55.10;22.93;;;;;;;5.45;100.00;99543.94;5036648;28;20063;-58
2021/11/15 02:52:55;;;;;;;51.27;22.20;;;;;;;5.51;100.00;99545.72;5035274;28;20134;-58
2021/11/15 02:55:22;;;;;;;45.90;19.37;;;;;;;5.47;100.00;99542.25;5033168;28;20032;-58
2021/11/15 02:57:49;;;;;;;44.87;20.17;;;;;;;5.45;100.00;99538.84;5035453;28;20031;-59
2021/11/15 03:00:26;;;;;;;46.53;19.73;;;;;;;5.50;100.00;99546.56;5035243;28;20078;-58
2021/11/15 03:02:54;;;;;;;42.20;18.70;;;;;;;5.50;100.00;99542.31;5032770;28;20067;-58
2021/11/15 03:05:30;;;;;;;41.93;19.67;;;;;;;5.47;100.00;99544.78;5038076;28;20035;-59
2021/11/15 03:07:57;;;;;;;41.20;19.27;;;;;;;5.40;100.00;99543.00;5036673;28;20124;-58
2021/11/15 03:10:24;;;;;;;46.50;19.57;;;;;;;5.38;100.00;99542.13;5035451;28;20088;-59
2021/11/15 03:12:50;;;;;;;44.47;21.23;;;;;;;5.46;100.00;99549.88;5032940;28;20051;-60
2021/11/15 03:15:31;;;;;;;46.80;20.67;;;;;;;5.45;100.00;99546.47;5035280;28;20045;-58
2021/11/15 03:18:07;;;;;;;44.00;20.87;;;;;;;5.47;100.00;99552.44;5040995;28;20055;-55
2021/11/15 03:20:37;;;;;;;46.03;21.20;;;;;;;5.55;100.00;99552.56;5034866;28;20038;-56
2021/11/15 03:23:08;;;;;;;42.40;21.20;;;;;;;5.45;100.00;99554.09;5035070;28;20379;-55
2021/11/15 03:25:33;;;;;;;46.27;22.90;;;;;;;5.45;100.00;99549.03;5031185;28;20376;-53
2021/11/15 03:27:59;;;;;;;44.23;19.37;;;;;;;5.45;100.00;99554.09;5033771;28;20036;-55
2021/11/15 03:30:26;;;;;;;38.93;18.20;;;;;;;5.47;100.00;99559.22;5031110;28;20025;-54
2021/11/15 03:32:53;;;;;;;51.97;22.03;;;;;;;5.48;100.00;99555.84;5030275;28;20051;-54
2021/11/15 03:35:19;;;;;;;42.17;18.20;;;;;;;5.43;100.00;99552.38;5033532;28;20043;-55
2021/11/15 03:37:45;;;;;;;43.50;21.57;;;;;;;5.40;100.00;99549.75;5034551;28;20037;-57
2021/11/15 03:40:15;;;;;;;36.10;17.53;;;;;;;5.47;100.00;99556.69;5032132;28;20183;-57
2021/11/15 03:42:43;;;;;;;38.83;18.67;;;;;;;5.47;100.00;99557.50;5033630;28;20040;-57
2021/11/15 03:45:09;;;;;;;31.37;15.80;;;;;;;5.45;100.00;99550.69;5035287;28;20043;-57
2021/11/15 03:47:35;;;;;;;28.43;15.77;;;;;;;5.48;100.00;99553.28;5035962;28;20029;-58
2021/11/15 03:50:01;;;;;;;33.00;16.83;;;;;;;5.52;100.00;99550.81;5034243;28;20051;-59
2021/11/15 03:52:26;;;;;;;34.57;17.20;;;;;;;5.54;100.00;99561.03;5033637;28;20036;-57
2021/11/15 03:54:52;;;;;;;38.63;16.57;;;;;;;5.56;100.00;99561.06;5035286;28;20041;-58
2021/11/15 03:57:17;;;;;;;38.90;17.97;;;;;;;5.50;100.00;99559.28;5034904;28;20384;-56
2021/11/15 03:59:43;;;;;;;31.87;17.40;;;;;;;5.55;100.00;99569.53;5032209;28;20037;-55
2021/11/15 04:02:10;;;;;;;37.83;18.90;;;;;;;5.52;100.00;99570.31;5035667;28;20076;-56
2021/11/15 04:07:41;;;;;;;30.03;16.93;;;;;;;5.48;100.00;99569.41;5012858;28;20046;-57
2021/11/15 04:10:13;;;;;;;33.20;16.47;;;;;;;5.57;100.00;99571.25;5012576;28;20072;-57
2021/11/15 04:12:39;;;;;;;33.23;18.30;;;;;;;5.58;100.00;99569.56;5015769;28;20041;-54
2021/11/15 04:15:06;;;;;;;33.43;18.20;;;;;;;5.61;100.00;99574.69;5016605;28;20570;-57
2021/11/15 04:17:33;;;;;;;27.47;16.37;;;;;;;5.61;100.00;99575.53;5013329;28;20088;-57
2021/11/15 04:19:59;;;;;;;34.40;16.80;;;;;;;5.63;100.00;99575.56;5011767;28;20709;-57
2021/11/15 04:22:24;;;;;;;31.63;16.40;;;;;;;5.63;100.00;99576.44;5015608;28;20132;-57
2021/11/15 04:24:50;;;;;;;31.47;17.70;;;;;;;5.67;100.00;99572.25;5014511;28;20415;-54
2021/11/15 04:27:15;;;;;;;29.17;16.40;;;;;;;5.66;100.00;99570.53;5012289;28;20037;-55
2021/11/15 04:29:41;;;;;;;34.87;18.07;;;;;;;5.66;100.00;99571.38;5014585;28;20078;-55
2021/11/15 04:32:07;;;;;;;31.87;17.57;;;;;;;5.67;100.00;99569.72;5014830;28;20059;-55
2021/11/15 04:34:34;;;;;;;32.37;18.80;;;;;;;5.68;100.00;99572.28;5016305;28;20041;-55
2021/11/15 04:37:01;;;;;;;32.00;17.83;;;;;;;5.70;100.00;99573.16;5016056;28;20135;-56
2021/11/15 04:39:26;;;;;;;29.77;16.43;;;;;;;5.73;100.00;99580.00;5018207;28;20022;-56
2021/11/15 04:41:51;;;;;;;32.63;16.40;;;;;;;5.66;100.00;99580.72;5034536;28;20067;-56
2021/11/15 04:44:17;;;;;;;33.10;17.57;;;;;;;5.48;100.00;99583.81;5040752;28;20111;-54
2021/11/15 04:46:43;;;;;;;34.27;18.37;;;;;;;5.52;100.00;99576.25;5033207;28;20035;-56
2021/11/15 04:49:09;;;;;;;32.07;17.63;;;;;;;5.55;100.00;99575.47;5037197;28;20051;-57
2021/11/15 04:51:34;;;;;;;36.10;18.17;;;;;;;5.59;100.00;99576.38;5040373;28;20044;-57
2021/11/15 04:54:00;;;;;;;36.97;19.67;;;;;;;5.65;100.00;99568.81;5037375;28;20029;-57
2021/11/15 04:56:26;;;;;;;32.17;16.47;;;;;;;5.65;100.00;99567.13;5035947;28;20025;-57
2021/11/15 04:58:52;;;;;;;32.90;19.03;;;;;;;5.68;100.00;99564.66;5036758;28;20033;-54
2021/11/15 05:01:17;;;;;;;31.97;17.77;;;;;;;5.73;100.00;99569.81;5036990;28;20031;-54
2021/11/15 05:03:44;;;;;;;35.77;18.00;;;;;;;5.74;100.00;99567.28;5036179;28;20428;-55
2021/11/15 05:06:10;;;;;;;34.87;18.73;;;;;;;5.69;100.00;99563.78;5037976;28;20392;-57
2021/11/15 05:08:36;;;;;;;37.00;19.23;;;;;;;5.68;100.00;99571.44;5036658;28;20025;-54
2021/11/15 05:11:02;;;;;;;37.03;19.23;;;;;;;5.67;100.00;99569.72;5039252;28;20123;-54
2021/11/15 05:13:27;;;;;;;33.10;18.97;;;;;;;5.68;100.00;99572.28;5035506;28;20514;-57
2021/11/15 05:15:53;;;;;;;39.03;20.63;;;;;;;5.74;100.00;99579.13;5037225;28;20037;-55
2021/11/15 05:18:18;;;;;;;41.93;20.53;;;;;;;5.67;100.00;99572.25;5035378;28;20040;-54
2021/11/15 05:20:44;;;;;;;39.20;20.27;;;;;;;5.58;100.00;99574.66;5039578;28;20147;-57
2021/11/15 05:23:09;;;;;;;44.00;22.43;;;;;;;5.62;100.00;99571.31;5036318;28;20068;-55
2021/11/15 05:25:35;;;;;;;38.03;19.97;;;;;;;5.65;100.00;99572.22;5034514;28;20025;-58
2021/11/15 05:28:01;;;;;;;35.40;20.40;;;;;;;5.62;100.00;99577.25;5040106;28;20631;-56
2021/11/15 05:30:26;;;;;;;38.47;20.10;;;;;;;5.58;100.00;99574.66;5038706;28;20032;-58
2021/11/15 05:32:55;;;;;;;38.00;21.13;;;;;;;5.62;100.00;99572.19;5038086;28;20040;-56
2021/11/15 05:35:22;;;;;;;38.67;20.80;;;;;;;5.68;100.00;99579.91;5033606;28;20033;-55
2021/11/15 05:37:51;;;;;;;40.70;23.73;;;;;;;5.69;100.00;99578.19;5038312;28;20578;-55
2021/11/15 05:40:18;;;;;;;38.13;21.37;;;;;;;5.73;100.00;99590.16;5040436;28;20357;-57
2021/11/15 05:42:43;;;;;;;39.53;19.90;;;;;;;5.73;100.00;99585.91;5035967;28;20192;-54
2021/11/15 05:45:10;;;;;;;42.10;22.30;;;;;;;5.75;100.00;99589.34;5034367;28;20044;-57
2021/11/15 05:47:35;;;;;;;37.27;20.70;;;;;;;5.74;100.00;99582.53;5040682;28;20035;-57
2021/11/15 05:50:04;;;;;;;37.10;22.13;;;;;;;5.79;100.00;99590.25;5035663;28;20026;-56
2021/11/15 05:52:29;;;;;;;39.33;21.40;;;;;;;5.76;100.00;99590.19;5033524;28;20033;-56
2021/11/15 05:54:55;;;;;;;35.93;19.80;;;;;;;5.76;100.00;99585.97;5036364;28;20040;-57
2021/11/15 05:57:21;;;;;;;35.83;19.87;;;;;;;5.76;100.00;99595.28;5038462;28;20033;-53
2021/11/15 05:59:47;;;;;;;34.17;19.10;;;;;;;5.77;100.00;99597.84;5038699;28;20029;-56
2021/11/15 06:02:12;;;;;;;33.03;18.23;;;;;;;5.74;100.00;99595.25;5034256;28;20037;-57
2021/11/15 06:04:38;;;;;;;45.50;22.33;;;;;;;5.74;100.00;99595.25;5032831;28;20527;-57
2021/11/15 06:07:04;;;;;;;37.57;19.23;;;;;;;5.79;100.00;99602.97;5037382;28;20032;-57
2021/11/15 06:09:29;;;;;;;36.90;19.83;;;;;;;5.71;100.00;99607.06;5037614;28;20034;-57
2021/11/15 06:11:55;;;;;;;39.57;20.67;;;;;;;5.71;100.00;99605.41;5035902;28;20543;-58
2021/11/15 06:14:20;;;;;;;36.73;19.13;;;;;;;5.80;100.00;99613.19;5035086;28;20041;-55
2021/11/15 06:16:46;;;;;;;35.60;20.90;;;;;;;5.73;100.00;99606.25;5037807;28;20072;-57
2021/11/15 06:19:11;;;;;;;42.97;21.20;;;;;;;5.75;100.00;99614.78;5036038;28;20033;-57
2021/11/15 06:21:37;;;;;;;39.57;23.13;;;;;;;5.76;100.00;99613.09;5034255;28;20085;-57
2021/11/15 06:24:03;;;;;;;36.67;21.63;;;;;;;5.78;100.00;99616.50;5037621;28;20041;-56
2021/11/15 06:26:29;;;;;;;35.40;19.33;;;;;;;5.80;100.00;99614.84;5036486;28;20029;-57
2021/11/15 06:28:55;;;;;;;33.00;19.47;;;;;;;5.82;100.00;99611.50;5037895;28;20551;-57
2021/11/15 06:31:20;;;;;;;40.17;21.10;;;;;;;5.81;100.00;99621.66;5034334;28;20041;-57
2021/11/15 06:33:49;;;;;;;38.60;18.40;;;;;;;5.77;100.00;99630.91;5041499;28;20083;-57
2021/11/15 06:36:15;;;;;;;39.77;21.03;;;;;;;5.80;100.00;99638.63;5037564;28;20135;-57
2021/11/15 06:38:41;;;;;;;38.53;21.03;;;;;;;5.84;100.00;99629.34;5037299;28;20406;-57
2021/11/15 06:41:06;;;;;;;39.30;21.33;;;;;;;5.88;100.00;99623.50;5035318;28;20030;-57
2021/11/15 06:43:32;;;;;;;39.90;20.87;;;;;;;5.90;100.00;99637.09;5035614;28;20100;-57
2021/11/15 06:45:57;;;;;;;35.80;18.97;;;;;;;5.92;100.00;99625.25;5036381;28;20112;-58
2021/11/15 06:48:22;;;;;;;40.93;20.27;;;;;;;5.92;100.00;99631.22;5035235;28;20124;-58
2021/11/15 06:50:49;;;;;;;39.77;20.33;;;;;;;5.95;100.00;99631.25;5037081;28;20104;-57
2021/11/15 06:53:14;;;;;;;39.47;20.57;;;;;;;5.93;100.00;99634.63;5035447;28;20022;-58
2021/11/15 06:55:40;;;;;;;33.53;18.17;;;;;;;5.94;100.00;99632.06;5036010;28;20391;-56
2021/11/15 06:58:05;;;;;;;37.77;20.47;;;;;;;5.89;100.00;99637.94;5033223;28;20056;-56
2021/11/15 07:00:31;;;;;;;36.20;20.57;;;;;;;5.84;100.00;99630.19;5030317;28;20456;-56
2021/11/15 07:02:57;;;;;;;41.97;22.27;;;;;;;5.76;100.00;99636.00;5037905;28;20018;-57
2021/11/15 07:05:24;;;;;;;39.90;22.13;;;;;;;5.85;100.00;99639.56;5040089;28;20076;-55
2021/11/15 07:07:51;;;;;;;39.73;22.67;;;;;;;5.93;100.00;99634.63;5033920;28;20396;-56
2021/11/15 07:10:17;;;;;;;40.53;20.87;;;;;;;5.88;100.00;99633.69;5034495;28;20577;-57
2021/11/15 07:12:43;;;;;;;38.20;21.90;;;;;;;5.92;100.00;99635.44;5037886;28;20029;-57
2021/11/15 07:15:10;;;;;;;40.47;20.97;;;;;;;5.91;100.00;99634.56;5038190;28;20052;-58
2021/11/15 07:17:36;;;;;;;39.70;20.73;;;;;;;5.92;100.00;99640.53;5035750;28;20017;-58
2021/11/15 07:20:03;;;;;;;38.97;22.40;;;;;;;5.82;100.00;99638.63;5035203;28;20037;-55
2021/11/15 07:22:28;;;;;;;38.93;21.33;;;;;;;5.74;100.00;99641.06;5035729;28;20029;-54
2021/11/15 07:24:53;;;;;;;41.33;22.20;;;;;;;5.78;100.00;99647.03;5034708;28;20029;-55
2021/11/15 07:27:19;;;;;;;40.90;22.77;;;;;;;5.84;100.00;99631.88;5031021;28;20025;-57
2021/11/15 07:29:44;;;;;;;40.77;22.53;;;;;;;5.90;100.00;99642.19;5030953;28;20037;-56
2021/11/15 07:32:13;;;;;;;47.00;23.57;;;;;;;5.94;100.00;99651.59;5034707;28;20083;-57
2021/11/15 07:34:42;;;;;;;40.87;22.20;;;;;;;5.98;100.00;99649.09;5036602;28;20045;-59
2021/11/15 07:37:09;;;;;;;40.60;21.77;;;;;;;6.04;100.00;99648.34;5031917;28;20039;-57
2021/11/15 07:39:43;;;;;;;38.87;21.33;;;;;;;6.15;100.00;99645.97;5035016;28;20462;-58
2021/11/15 07:42:10;;;;;;;41.00;22.07;;;;;;;6.23;100.00;99647.81;5035593;28;20037;-59
2021/11/15 07:44:36;;;;;;;38.67;20.23;;;;;;;6.25;100.00;99642.72;5036555;28;20055;-59
2021/11/15 07:47:02;;;;;;;38.33;22.20;;;;;;;6.34;100.00;99647.94;5034795;28;20030;-59
2021/11/15 07:49:27;;;;;;;37.60;20.40;;;;;;;6.41;100.00;99650.59;5039160;28;20028;-59
2021/11/15 07:51:53;;;;;;;36.77;20.43;;;;;;;6.42;100.00;99644.66;5036315;28;20035;-59
2021/11/15 07:54:18;;;;;;;43.77;21.10;;;;;;;6.42;100.00;99652.31;5034179;28;20178;-59
2021/11/15 07:56:43;;;;;;;35.87;20.33;;;;;;;6.49;100.00;99647.31;5038839;28;20025;-59
2021/11/15 07:59:09;;;;;;;38.63;20.27;;;;;;;6.51;100.00;99648.19;5036618;28;20026;-58
2021/11/15 08:01:34;;;;;;;37.27;20.73;;;;;;;6.51;100.00;99649.03;5040586;28;20387;-57
2021/11/15 08:04:00;;;;;;;43.00;22.53;;;;;;;6.54;100.00;99653.31;5035282;28;20528;-57
2021/11/15 08:06:25;;;;;;;39.10;21.77;;;;;;;6.57;100.00;99659.31;5036018;28;20025;-59
2021/11/15 08:08:51;;;;;;;40.53;21.83;;;;;;;6.66;100.00;99653.50;5037447;28;20452;-58
2021/11/15 08:11:17;;;;;;;36.20;22.10;;;;;;;6.70;100.00;99653.56;5035454;28;20037;-60
2021/11/15 08:13:43;;;;;;;39.83;22.17;;;;;;;6.69;100.00;99662.03;5042197;28;20030;-58
2021/11/15 08:16:08;;;;;;;40.30;22.53;;;;;;;6.67;100.00;99660.28;5038919;28;20391;-58
2021/11/15 08:18:36;;;;;;;34.93;20.37;;;;;;;6.70;100.00;99661.19;5040709;28;20034;-59
2021/11/15 08:21:08;;;;;;;38.87;21.30;;;;;;;6.72;100.00;99661.19;5043006;28;20045;-59
2021/11/15 08:23:34;;;;;;;37.80;21.60;;;;;;;6.74;100.00;99667.19;5039826;28;20033;-59
2021/11/15 08:26:20;;;;;;;39.70;22.83;;;;;;;6.83;100.00;99665.59;5042585;28;20041;-59
2021/11/15 08:28:45;;;;;;;41.67;22.07;;;;;;;6.84;100.00;99667.31;5020835;28;20128;-58
2021/11/15 08:31:12;;;;;;;37.60;20.60;;;;;;;6.84;100.00;99677.50;5039312;28;20048;-56
2021/11/15 08:33:38;;;;;;;36.77;22.27;;;;;;;6.99;100.00;99679.41;5036388;28;20105;-58
2021/11/15 08:36:04;;;;;;;37.80;22.07;;;;;;;7.00;100.00;99673.44;5037520;28;20066;-57
2021/11/15 08:38:45;;;;;;;39.03;21.87;;;;;;;6.99;100.00;99679.41;5041120;28;20477;-58
2021/11/15 08:41:13;;;;;;;40.73;21.73;;;;;;;6.91;100.00;99677.59;5036360;28;20041;-60
2021/11/15 08:43:38;;;;;;;34.63;21.10;;;;;;;6.99;100.00;99668.34;5035439;28;20052;-60
2021/11/15 08:46:07;;;;;;;33.40;20.70;;;;;;;7.09;100.00;99670.13;5038476;28;20475;-58
2021/11/15 08:48:33;;;;;;;34.43;21.63;;;;;;;7.12;100.00;99681.25;5039356;28;20016;-61
2021/11/15 08:50:59;;;;;;;40.43;22.73;;;;;;;7.21;100.00;99677.94;5035057;28;20108;-58
2021/11/15 08:53:24;;;;;;;37.07;22.50;;;;;;;7.25;100.00;99675.47;5033523;28;20542;-59
2021/11/15 08:55:51;;;;;;;34.20;21.90;;;;;;;7.27;100.00;99685.66;5036432;28;20070;-58
2021/11/15 08:58:16;;;;;;;35.93;21.30;;;;;;;7.08;100.00;99676.97;5037466;28;20284;-57
2021/11/15 09:00:42;;;;;;;34.93;21.20;;;;;;;7.11;100.00;99682.09;5035089;28;20021;-59
2021/11/15 09:03:08;;;;;;;38.30;21.87;;;;;;;7.03;100.00;99686.25;5034903;28;20160;-58
2021/11/15 09:05:34;;;;;;;42.90;23.77;;;;;;;7.05;100.00;99679.44;5035433;28;20032;-58
2021/11/15 09:07:59;;;;;;;42.57;24.60;;;;;;;7.05;100.00;99679.44;5037127;28;20046;-59
2021/11/15 09:10:24;;;;;;;41.10;23.90;;;;;;;7.10;100.00;99682.91;5035035;28;20036;-58
2021/11/15 09:12:50;;;;;;;39.77;23.67;;;;;;;7.12;100.00;99691.44;5035747;28;20075;-58
2021/11/15 09:15:16;;;;;;;35.70;22.17;;;;;;;7.21;100.00;99681.34;5038612;28;20030;-59
2021/11/15 09:17:44;;;;;;;36.87;22.27;;;;;;;7.25;100.00;99690.75;5039467;28;20039;-58
2021/11/15 09:20:10;;;;;;;38.83;23.80;;;;;;;7.22;100.00;99685.59;5039256;28;20064;-59
2021/11/15 09:22:38;;;;;;;37.83;21.07;;;;;;;7.28;100.00;99682.28;5038543;28;20049;-57
2021/11/15 09:25:05;;;;;;;38.47;21.43;;;;;;;7.31;100.00;99687.41;5037136;28;20487;-58
2021/11/15 09:27:31;;;;;;;34.90;19.97;;;;;;;7.29;100.00;99681.44;5037203;28;20068;-60
2021/11/15 09:29:56;;;;;;;33.03;20.80;;;;;;;6.98;100.00;99679.38;5033696;28;20455;-60
2021/11/15 09:32:23;;;;;;;36.60;23.27;;;;;;;7.12;100.00;99682.94;5035052;28;20115;-59
2021/11/15 09:34:49;;;;;;;39.07;21.27;;;;;;;7.27;100.00;99685.66;5040090;28;20037;-59
2021/11/15 09:37:16;;;;;;;35.53;21.77;;;;;;;7.17;100.00;99684.69;5038037;28;20056;-57
2021/11/15 09:39:45;;;;;;;38.47;20.57;;;;;;;7.22;100.00;99674.53;5035871;28;20073;-58
2021/11/15 09:42:12;;;;;;;30.43;18.57;;;;;;;7.13;100.00;99679.56;5034009;28;20095;-60
2021/11/15 09:44:38;;;;;;;33.03;19.53;;;;;;;7.25;100.00;99677.16;5036528;28;20056;-57
2021/11/15 09:47:05;;;;;;;31.77;19.77;;;;;;;7.25;100.00;99679.69;5035486;28;20029;-60
2021/11/15 09:49:32;;;;;;;32.27;19.50;;;;;;;7.22;100.00;99677.09;5033712;28;20086;-58
2021/11/15 09:51:57;;;;;;;40.57;22.00;;;;;;;7.17;100.00;99679.59;5033921;28;20167;-58
2021/11/15 09:54:23;;;;;;;29.57;18.63;;;;;;;7.33;100.00;99672.97;5036642;28;20032;-58
2021/11/15 09:56:50;;;;;;;32.37;20.53;;;;;;;7.48;100.00;99674.81;5035694;28;20539;-59
2021/11/15 09:59:17;;;;;;;31.27;18.93;;;;;;;7.47;100.00;99660.38;5034786;28;20377;-60
2021/11/15 10:01:48;;;;;;;32.10;17.97;;;;;;;7.10;100.00;99662.53;5036150;28;20033;-58
2021/11/15 10:04:17;;;;;;;31.37;19.80;;;;;;;7.14;100.00;99669.38;5035340;28;20024;-57
2021/11/15 10:06:47;;;;;;;33.27;20.60;;;;;;;7.31;100.00;99672.97;5035890;28;20475;-59
2021/11/15 10:09:13;;;;;;;37.07;19.13;;;;;;;7.47;100.00;99661.19;5034628;28;20037;-58
2021/11/15 10:11:41;;;;;;;34.43;20.33;;;;;;;7.58;100.00;99662.19;5036411;28;20430;-58
2021/11/15 10:14:07;;;;;;;34.00;19.67;;;;;;;7.30;100.00;99666.13;5036408;28;20093;-58
2021/11/15 10:16:34;;;;;;;34.57;20.27;;;;;;;7.05;100.00;99660.75;5036384;28;20033;-57
2021/11/15 10:19:03;;;;;;;35.50;21.30;;;;;;;7.10;100.00;99661.66;5032963;28;20037;-59
2021/11/15 10:21:42;;;;;;;34.83;19.67;;;;;;;7.51;100.00;99657.00;5035884;28;20041;-58
2021/11/15 10:24:36;;;;;;;33.00;18.13;;;;;;;7.74;100.00;99652.97;5038413;28;20075;-58
2021/11/15 10:27:12;;;;;;;33.33;21.37;;;;;;;7.73;100.00;99649.53;5033583;28;20724;-59
2021/11/15 10:29:45;;;;;;;33.23;20.23;;;;;;;7.87;100.00;99639.47;5035829;28;20029;-59
2021/11/15 10:32:14;;;;;;;33.07;21.20;;;;;;;7.91;100.00;99635.22;5036632;28;20074;-60
2021/11/15 10:34:49;;;;;;;31.97;18.83;;;;;;;7.95;100.00;99635.25;5034854;28;20116;-58
2021/11/15 10:37:16;;;;;;;;;;;;;;;8.03;100.00;99638.72;5034514;28;20044;-59
2021/11/15 10:40:00;;;;;;;41.67;20.97;;;;;;;8.28;100.00;99640.59;5034778;28;20280;-58
2021/11/15 10:42:33;;;;;;;37.70;19.20;;;;;;;8.12;100.00;99637.94;5035077;28;20043;-60
2021/11/15 10:45:06;;;;;;;33.77;20.13;;;;;;;8.11;100.00;99626.00;5034293;28;20049;-59
2021/11/15 10:47:42;;;;;;;30.90;18.03;;;;;;;8.21;100.00;99633.75;5033104;28;20136;-59
2021/11/15 10:50:46;;;;;;;34.27;20.07;;;;;;;8.16;100.00;99629.44;5036138;28;20116;-62
2021/11/15 10:53:21;;;;;;;38.93;21.20;;;;;;;8.33;100.00;99625.34;5034573;28;20069;-58
2021/11/15 10:56:18;;;;;;;34.05;21.08;;;;;;;8.49;100.00;99622.00;5032869;28;20503;-58
2021/11/15 10:58:47;;;;;;;36.57;20.93;;;;;;;8.71;100.00;99622.97;5036668;28;20045;-58
2021/11/15 11:01:13;;;;;;;35.13;21.07;;;;;;;8.74;100.00;99620.44;5035676;28;20577;-59
2021/11/15 11:03:39;;;;;;;30.13;21.13;;;;;;;8.82;100.00;99610.25;5034601;28;20037;-59
2021/11/15 11:06:08;;;;;;;32.03;19.33;;;;;;;8.98;100.00;99620.53;5034302;28;20060;-57
2021/11/15 11:08:43;;;;;;;30.92;19.55;;;;;;;9.06;100.00;99610.31;5036768;28;20038;-59
2021/11/15 11:11:17;;;;;;;38.90;21.52;;;;;;;9.07;100.00;99607.78;5036996;28;20060;-57
2021/11/15 11:13:45;;;;;;;35.63;20.30;;;;;;;9.13;100.00;99615.44;5034532;28;20040;-60
2021/11/15 11:16:11;;;;;;;35.25;22.33;;;;;;;8.97;100.00;99610.28;5032986;28;20048;-58
2021/11/15 11:18:44;;;;;;;39.85;21.25;;;;;;;8.95;100.00;99607.75;5036435;28;20468;-59
2021/11/15 11:26:37;;;;;;;40.25;23.98;;;;;;;8.68;100.00;99600.81;5034506;28;20128;-56